sensor_id;sensor_type;location;lat;lon;timestamp;temperature;humidity
27647;DHT22;42229;51.230;6.240;2023-06-26T00:00:21;23.70;61.00
27647;DHT22;42229;51.230;6.240;2023-06-26T00:02:48;23.70;61.70
27647;DHT22;42229;51.230;6.240;2023-06-26T00:05:14;23.60;63.60
27647;DHT22;42229;51.230;6.240;2023-06-26T00:07:41;23.60;63.40
27647;DHT22;42229;51.230;6.240;2023-06-26T00:10:08;23.50;61.90
27647;DHT22;42229;51.230;6.240;2023-06-26T00:12:34;23.50;62.70
27647;DHT22;42229;51.230;6.240;2023-06-26T00:15:00;23.40;63.30
27647;DHT22;42229;51.230;6.240;2023-06-26T00:17:26;23.40;62.40
27647;DHT22;42229;51.230;6.240;2023-06-26T00:19:54;23.30;62.40
27647;DHT22;42229;51.230;6.240;2023-06-26T00:22:20;23.30;62.00
27647;DHT22;42229;51.230;6.240;2023-06-26T00:24:47;23.30;62.00
27647;DHT22;42229;51.230;6.240;2023-06-26T00:27:13;23.30;62.40
27647;DHT22;42229;51.230;6.240;2023-06-26T00:29:39;23.20;62.00
27647;DHT22;42229;51.230;6.240;2023-06-26T00:32:06;23.10;62.00
27647;DHT22;42229;51.230;6.240;2023-06-26T00:34:33;23.10;63.10
27647;DHT22;42229;51.230;6.240;2023-06-26T00:36:59;23.10;62.40
27647;DHT22;42229;51.230;6.240;2023-06-26T00:39:26;23.00;62.20
27647;DHT22;42229;51.230;6.240;2023-06-26T00:41:52;23.00;62.20
27647;DHT22;42229;51.230;6.240;2023-06-26T00:44:20;23.00;62.50
27647;DHT22;42229;51.230;6.240;2023-06-26T00:46:46;23.00;62.30
27647;DHT22;42229;51.230;6.240;2023-06-26T00:49:12;22.90;62.20
27647;DHT22;42229;51.230;6.240;2023-06-26T00:51:39;22.90;64.30
27647;DHT22;42229;51.230;6.240;2023-06-26T00:54:05;22.90;63.10
27647;DHT22;42229;51.230;6.240;2023-06-26T00:56:32;22.90;63.20
27647;DHT22;42229;51.230;6.240;2023-06-26T00:58:58;22.80;62.70
27647;DHT22;42229;51.230;6.240;2023-06-26T01:01:26;22.80;62.50
27647;DHT22;42229;51.230;6.240;2023-06-26T01:03:52;22.70;62.60
27647;DHT22;42229;51.230;6.240;2023-06-26T01:06:23;22.70;62.90
27647;DHT22;42229;51.230;6.240;2023-06-26T01:08:49;22.70;62.90
27647;DHT22;42229;51.230;6.240;2023-06-26T01:11:17;22.70;63.30
27647;DHT22;42229;51.230;6.240;2023-06-26T01:13:44;22.60;65.00
27647;DHT22;42229;51.230;6.240;2023-06-26T01:16:10;22.60;63.70
27647;DHT22;42229;51.230;6.240;2023-06-26T01:18:37;22.60;63.20
27647;DHT22;42229;51.230;6.240;2023-06-26T01:21:07;22.60;64.60
27647;DHT22;42229;51.230;6.240;2023-06-26T01:26:23;22.50;63.50
27647;DHT22;42229;51.230;6.240;2023-06-26T01:28:52;22.40;63.90
27647;DHT22;42229;51.230;6.240;2023-06-26T01:31:19;22.40;63.60
27647;DHT22;42229;51.230;6.240;2023-06-26T01:33:45;22.40;64.00
27647;DHT22;42229;51.230;6.240;2023-06-26T01:36:12;22.40;64.40
27647;DHT22;42229;51.230;6.240;2023-06-26T01:38:38;22.40;64.20
27647;DHT22;42229;51.230;6.240;2023-06-26T01:41:05;22.40;63.90
27647;DHT22;42229;51.230;6.240;2023-06-26T01:46:25;22.40;64.20
27647;DHT22;42229;51.230;6.240;2023-06-26T01:49:08;22.40;64.30
27647;DHT22;42229;51.230;6.240;2023-06-26T01:51:41;22.40;64.30
27647;DHT22;42229;51.230;6.240;2023-06-26T01:54:09;22.40;64.30
27647;DHT22;42229;51.230;6.240;2023-06-26T01:56:37;22.40;64.80
27647;DHT22;42229;51.230;6.240;2023-06-26T01:59:04;22.40;64.40
27647;DHT22;42229;51.230;6.240;2023-06-26T02:01:32;22.40;65.80
27647;DHT22;42229;51.230;6.240;2023-06-26T02:03:59;22.50;65.40
27647;DHT22;42229;51.230;6.240;2023-06-26T02:06:25;22.50;64.90
27647;DHT22;42229;51.230;6.240;2023-06-26T02:08:52;22.50;68.60
27647;DHT22;42229;51.230;6.240;2023-06-26T02:11:18;22.60;66.30
27647;DHT22;42229;51.230;6.240;2023-06-26T02:13:44;22.60;67.30
27647;DHT22;42229;51.230;6.240;2023-06-26T02:16:11;22.60;68.50
27647;DHT22;42229;51.230;6.240;2023-06-26T02:18:37;22.70;70.20
27647;DHT22;42229;51.230;6.240;2023-06-26T02:21:04;22.70;72.60
27647;DHT22;42229;51.230;6.240;2023-06-26T02:23:32;22.70;70.50
27647;DHT22;42229;51.230;6.240;2023-06-26T02:25:58;22.80;69.40
27647;DHT22;42229;51.230;6.240;2023-06-26T02:28:24;22.80;72.60
27647;DHT22;42229;51.230;6.240;2023-06-26T02:30:51;22.80;75.20
27647;DHT22;42229;51.230;6.240;2023-06-26T02:33:17;22.90;71.40
27647;DHT22;42229;51.230;6.240;2023-06-26T02:35:48;22.90;71.30
27647;DHT22;42229;51.230;6.240;2023-06-26T02:38:16;22.90;74.20
27647;DHT22;42229;51.230;6.240;2023-06-26T02:40:42;22.90;71.40
27647;DHT22;42229;51.230;6.240;2023-06-26T02:43:09;22.90;75.80
27647;DHT22;42229;51.230;6.240;2023-06-26T02:45:35;22.90;73.00
27647;DHT22;42229;51.230;6.240;2023-06-26T02:48:01;22.80;72.00
27647;DHT22;42229;51.230;6.240;2023-06-26T02:50:28;22.80;72.30
27647;DHT22;42229;51.230;6.240;2023-06-26T02:53:04;22.80;72.70
27647;DHT22;42229;51.230;6.240;2023-06-26T02:55:30;22.80;72.30
27647;DHT22;42229;51.230;6.240;2023-06-26T02:57:58;22.80;73.10
27647;DHT22;42229;51.230;6.240;2023-06-26T03:00:24;22.80;72.90
27647;DHT22;42229;51.230;6.240;2023-06-26T03:02:53;22.70;75.80
27647;DHT22;42229;51.230;6.240;2023-06-26T03:05:20;22.70;73.90
27647;DHT22;42229;51.230;6.240;2023-06-26T03:07:47;22.70;75.50
27647;DHT22;42229;51.230;6.240;2023-06-26T03:10:14;22.70;76.70
27647;DHT22;42229;51.230;6.240;2023-06-26T03:12:42;22.70;78.70
27647;DHT22;42229;51.230;6.240;2023-06-26T03:15:08;22.70;77.90
27647;DHT22;42229;51.230;6.240;2023-06-26T03:17:35;22.70;79.10
27647;DHT22;42229;51.230;6.240;2023-06-26T03:20:05;22.80;75.50
27647;DHT22;42229;51.230;6.240;2023-06-26T03:22:42;22.80;77.40
27647;DHT22;42229;51.230;6.240;2023-06-26T03:25:09;22.80;76.30
27647;DHT22;42229;51.230;6.240;2023-06-26T03:27:35;22.80;75.30
27647;DHT22;42229;51.230;6.240;2023-06-26T03:30:01;22.80;76.80
27647;DHT22;42229;51.230;6.240;2023-06-26T03:32:28;22.80;79.10
27647;DHT22;42229;51.230;6.240;2023-06-26T03:34:54;22.80;77.30
27647;DHT22;42229;51.230;6.240;2023-06-26T03:37:20;22.80;76.90
27647;DHT22;42229;51.230;6.240;2023-06-26T03:39:47;22.80;78.60
27647;DHT22;42229;51.230;6.240;2023-06-26T03:42:13;22.80;76.60
27647;DHT22;42229;51.230;6.240;2023-06-26T03:44:39;22.80;76.20
27647;DHT22;42229;51.230;6.240;2023-06-26T03:47:06;22.80;75.50
27647;DHT22;42229;51.230;6.240;2023-06-26T03:49:32;22.80;77.60
27647;DHT22;42229;51.230;6.240;2023-06-26T03:51:58;22.90;75.50
27647;DHT22;42229;51.230;6.240;2023-06-26T03:54:24;22.90;75.50
27647;DHT22;42229;51.230;6.240;2023-06-26T03:56:51;22.90;75.30
27647;DHT22;42229;51.230;6.240;2023-06-26T03:59:18;22.80;78.40
27647;DHT22;42229;51.230;6.240;2023-06-26T04:01:44;22.80;78.10
27647;DHT22;42229;51.230;6.240;2023-06-26T04:04:10;22.80;78.30
27647;DHT22;42229;51.230;6.240;2023-06-26T04:06:37;22.80;75.80
27647;DHT22;42229;51.230;6.240;2023-06-26T04:09:03;22.80;76.40
27647;DHT22;42229;51.230;6.240;2023-06-26T04:11:30;22.80;77.10
27647;DHT22;42229;51.230;6.240;2023-06-26T04:13:57;22.80;78.60
27647;DHT22;42229;51.230;6.240;2023-06-26T04:16:23;22.80;77.60
27647;DHT22;42229;51.230;6.240;2023-06-26T04:18:51;22.80;78.40
27647;DHT22;42229;51.230;6.240;2023-06-26T04:21:18;22.70;77.70
27647;DHT22;42229;51.230;6.240;2023-06-26T04:23:44;22.70;77.50
27647;DHT22;42229;51.230;6.240;2023-06-26T04:26:10;22.70;79.40
27647;DHT22;42229;51.230;6.240;2023-06-26T04:28:40;22.70;78.10
27647;DHT22;42229;51.230;6.240;2023-06-26T04:31:07;22.70;78.00
27647;DHT22;42229;51.230;6.240;2023-06-26T04:33:35;22.60;77.30
27647;DHT22;42229;51.230;6.240;2023-06-26T04:36:04;22.60;77.50
27647;DHT22;42229;51.230;6.240;2023-06-26T04:38:33;22.60;78.10
27647;DHT22;42229;51.230;6.240;2023-06-26T04:41:00;22.60;78.10
27647;DHT22;42229;51.230;6.240;2023-06-26T04:43:27;22.60;78.90
27647;DHT22;42229;51.230;6.240;2023-06-26T04:45:53;22.50;77.10
27647;DHT22;42229;51.230;6.240;2023-06-26T04:48:19;22.50;78.40
27647;DHT22;42229;51.230;6.240;2023-06-26T04:50:45;22.50;79.40
27647;DHT22;42229;51.230;6.240;2023-06-26T04:53:20;22.50;79.20
27647;DHT22;42229;51.230;6.240;2023-06-26T04:55:47;22.50;79.10
27647;DHT22;42229;51.230;6.240;2023-06-26T04:58:13;22.40;78.90
27647;DHT22;42229;51.230;6.240;2023-06-26T05:00:39;22.40;79.60
27647;DHT22;42229;51.230;6.240;2023-06-26T05:03:11;22.40;79.80
27647;DHT22;42229;51.230;6.240;2023-06-26T05:05:38;22.40;79.30
27647;DHT22;42229;51.230;6.240;2023-06-26T05:08:15;22.40;84.00
27647;DHT22;42229;51.230;6.240;2023-06-26T05:10:41;22.30;83.20
27647;DHT22;42229;51.230;6.240;2023-06-26T05:13:07;22.30;83.20
27647;DHT22;42229;51.230;6.240;2023-06-26T05:15:34;22.30;82.90
27647;DHT22;42229;51.230;6.240;2023-06-26T05:18:00;22.30;84.40
27647;DHT22;42229;51.230;6.240;2023-06-26T05:20:26;22.40;84.50
27647;DHT22;42229;51.230;6.240;2023-06-26T05:22:52;22.40;84.50
27647;DHT22;42229;51.230;6.240;2023-06-26T05:25:19;22.40;84.40
27647;DHT22;42229;51.230;6.240;2023-06-26T05:27:48;22.40;83.80
27647;DHT22;42229;51.230;6.240;2023-06-26T05:30:15;22.40;87.70
27647;DHT22;42229;51.230;6.240;2023-06-26T05:32:41;22.40;86.00
27647;DHT22;42229;51.230;6.240;2023-06-26T05:35:08;22.40;88.20
27647;DHT22;42229;51.230;6.240;2023-06-26T05:37:35;22.40;87.30
27647;DHT22;42229;51.230;6.240;2023-06-26T05:40:01;22.40;88.10
27647;DHT22;42229;51.230;6.240;2023-06-26T05:42:29;22.40;88.50
27647;DHT22;42229;51.230;6.240;2023-06-26T05:44:56;22.40;88.30
27647;DHT22;42229;51.230;6.240;2023-06-26T05:47:22;22.40;88.20
27647;DHT22;42229;51.230;6.240;2023-06-26T05:49:49;22.40;89.20
27647;DHT22;42229;51.230;6.240;2023-06-26T05:52:15;22.40;88.60
27647;DHT22;42229;51.230;6.240;2023-06-26T05:54:42;22.40;89.40
27647;DHT22;42229;51.230;6.240;2023-06-26T05:57:08;22.40;89.70
27647;DHT22;42229;51.230;6.240;2023-06-26T05:59:35;22.40;90.00
27647;DHT22;42229;51.230;6.240;2023-06-26T06:02:03;22.40;90.90
27647;DHT22;42229;51.230;6.240;2023-06-26T06:04:29;22.40;90.70
27647;DHT22;42229;51.230;6.240;2023-06-26T06:06:55;22.40;90.50
27647;DHT22;42229;51.230;6.240;2023-06-26T06:09:21;22.40;91.80
27647;DHT22;42229;51.230;6.240;2023-06-26T06:11:48;22.40;91.10
27647;DHT22;42229;51.230;6.240;2023-06-26T06:14:14;22.40;91.70
27647;DHT22;42229;51.230;6.240;2023-06-26T06:16:40;22.40;91.20
27647;DHT22;42229;51.230;6.240;2023-06-26T06:19:06;22.40;91.50
27647;DHT22;42229;51.230;6.240;2023-06-26T06:21:33;22.40;91.80
27647;DHT22;42229;51.230;6.240;2023-06-26T06:23:59;22.40;92.70
27647;DHT22;42229;51.230;6.240;2023-06-26T06:26:27;22.40;92.40
27647;DHT22;42229;51.230;6.240;2023-06-26T06:28:53;22.50;91.40
27647;DHT22;42229;51.230;6.240;2023-06-26T06:31:19;22.40;91.70
27647;DHT22;42229;51.230;6.240;2023-06-26T06:33:46;22.50;93.50
27647;DHT22;42229;51.230;6.240;2023-06-26T06:36:12;22.50;92.50
27647;DHT22;42229;51.230;6.240;2023-06-26T06:38:38;22.60;92.90
27647;DHT22;42229;51.230;6.240;2023-06-26T06:41:09;22.60;93.50
27647;DHT22;42229;51.230;6.240;2023-06-26T06:43:35;22.60;93.10
27647;DHT22;42229;51.230;6.240;2023-06-26T06:46:02;22.60;92.80
27647;DHT22;42229;51.230;6.240;2023-06-26T06:48:28;22.70;93.20
27647;DHT22;42229;51.230;6.240;2023-06-26T06:50:54;22.70;94.20
27647;DHT22;42229;51.230;6.240;2023-06-26T06:53:20;22.70;94.00
27647;DHT22;42229;51.230;6.240;2023-06-26T06:55:47;22.70;93.70
27647;DHT22;42229;51.230;6.240;2023-06-26T06:58:13;22.70;93.30
27647;DHT22;42229;51.230;6.240;2023-06-26T07:00:39;22.80;94.00
27647;DHT22;42229;51.230;6.240;2023-06-26T07:03:05;22.70;94.40
27647;DHT22;42229;51.230;6.240;2023-06-26T07:05:32;22.80;94.00
27647;DHT22;42229;51.230;6.240;2023-06-26T07:07:58;22.80;93.70
27647;DHT22;42229;51.230;6.240;2023-06-26T07:10:24;22.80;94.20
27647;DHT22;42229;51.230;6.240;2023-06-26T07:12:50;22.90;94.50
27647;DHT22;42229;51.230;6.240;2023-06-26T07:15:17;22.90;94.60
27647;DHT22;42229;51.230;6.240;2023-06-26T07:17:43;23.00;94.60
27647;DHT22;42229;51.230;6.240;2023-06-26T07:20:10;23.10;94.30
27647;DHT22;42229;51.230;6.240;2023-06-26T07:22:41;23.20;94.20
27647;DHT22;42229;51.230;6.240;2023-06-26T07:25:08;23.20;93.80
27647;DHT22;42229;51.230;6.240;2023-06-26T07:27:37;23.30;94.10
27647;DHT22;42229;51.230;6.240;2023-06-26T07:30:03;23.30;93.70
27647;DHT22;42229;51.230;6.240;2023-06-26T07:32:30;23.30;93.70
27647;DHT22;42229;51.230;6.240;2023-06-26T07:34:56;23.30;93.60
27647;DHT22;42229;51.230;6.240;2023-06-26T07:37:22;23.30;93.40
27647;DHT22;42229;51.230;6.240;2023-06-26T07:39:49;23.30;93.20
27647;DHT22;42229;51.230;6.240;2023-06-26T07:42:15;23.30;93.50
27647;DHT22;42229;51.230;6.240;2023-06-26T07:44:42;23.30;93.80
27647;DHT22;42229;51.230;6.240;2023-06-26T07:47:08;23.30;93.30
27647;DHT22;42229;51.230;6.240;2023-06-26T07:49:35;23.40;93.40
27647;DHT22;42229;51.230;6.240;2023-06-26T07:52:01;23.40;93.60
27647;DHT22;42229;51.230;6.240;2023-06-26T07:54:28;23.40;93.30
27647;DHT22;42229;51.230;6.240;2023-06-26T07:56:56;23.50;93.30
27647;DHT22;42229;51.230;6.240;2023-06-26T07:59:24;23.50;93.40
27647;DHT22;42229;51.230;6.240;2023-06-26T08:01:51;23.50;93.50
27647;DHT22;42229;51.230;6.240;2023-06-26T08:04:18;23.60;93.30
27647;DHT22;42229;51.230;6.240;2023-06-26T08:06:48;23.60;93.40
27647;DHT22;42229;51.230;6.240;2023-06-26T08:09:16;23.70;93.30
27647;DHT22;42229;51.230;6.240;2023-06-26T08:11:42;23.70;93.00
27647;DHT22;42229;51.230;6.240;2023-06-26T08:14:09;23.80;93.20
27647;DHT22;42229;51.230;6.240;2023-06-26T08:16:35;23.80;93.20
27647;DHT22;42229;51.230;6.240;2023-06-26T08:19:01;23.90;93.20
27647;DHT22;42229;51.230;6.240;2023-06-26T08:21:27;23.90;93.10
27647;DHT22;42229;51.230;6.240;2023-06-26T08:23:54;24.00;93.20
27647;DHT22;42229;51.230;6.240;2023-06-26T08:26:20;24.00;93.10
27647;DHT22;42229;51.230;6.240;2023-06-26T08:28:46;24.00;92.80
27647;DHT22;42229;51.230;6.240;2023-06-26T08:31:12;24.10;92.70
27647;DHT22;42229;51.230;6.240;2023-06-26T08:33:39;24.20;92.90
27647;DHT22;42229;51.230;6.240;2023-06-26T08:36:05;24.30;92.60
27647;DHT22;42229;51.230;6.240;2023-06-26T08:38:31;24.30;92.20
27647;DHT22;42229;51.230;6.240;2023-06-26T08:40:58;24.40;92.60
27647;DHT22;42229;51.230;6.240;2023-06-26T08:43:25;24.30;92.20
27647;DHT22;42229;51.230;6.240;2023-06-26T08:45:52;24.30;92.30
27647;DHT22;42229;51.230;6.240;2023-06-26T08:48:20;24.40;92.30
27647;DHT22;42229;51.230;6.240;2023-06-26T08:50:50;24.40;92.00
27647;DHT22;42229;51.230;6.240;2023-06-26T08:56:24;24.40;92.10
27647;DHT22;42229;51.230;6.240;2023-06-26T08:58:51;24.50;91.90
27647;DHT22;42229;51.230;6.240;2023-06-26T09:01:17;24.50;92.10
27647;DHT22;42229;51.230;6.240;2023-06-26T09:03:44;24.50;91.70
27647;DHT22;42229;51.230;6.240;2023-06-26T09:06:11;24.50;91.20
27647;DHT22;42229;51.230;6.240;2023-06-26T09:08:37;24.50;91.20
27647;DHT22;42229;51.230;6.240;2023-06-26T09:11:03;24.60;91.10
27647;DHT22;42229;51.230;6.240;2023-06-26T09:13:30;24.60;91.20
27647;DHT22;42229;51.230;6.240;2023-06-26T09:15:56;24.70;90.60
27647;DHT22;42229;51.230;6.240;2023-06-26T09:18:23;24.70;90.50
27647;DHT22;42229;51.230;6.240;2023-06-26T09:20:49;24.70;91.10
27647;DHT22;42229;51.230;6.240;2023-06-26T09:23:16;24.80;91.10
27647;DHT22;42229;51.230;6.240;2023-06-26T09:25:42;24.90;90.30
27647;DHT22;42229;51.230;6.240;2023-06-26T09:28:10;24.90;90.50
27647;DHT22;42229;51.230;6.240;2023-06-26T09:30:36;25.00;90.60
27647;DHT22;42229;51.230;6.240;2023-06-26T09:33:15;25.00;90.80
27647;DHT22;42229;51.230;6.240;2023-06-26T09:35:46;25.00;89.50
27647;DHT22;42229;51.230;6.240;2023-06-26T09:38:13;25.00;89.40
27647;DHT22;42229;51.230;6.240;2023-06-26T09:40:40;25.00;89.50
27647;DHT22;42229;51.230;6.240;2023-06-26T09:43:07;25.00;89.70
27647;DHT22;42229;51.230;6.240;2023-06-26T09:45:35;24.90;89.60
27647;DHT22;42229;51.230;6.240;2023-06-26T09:48:04;24.90;90.00
27647;DHT22;42229;51.230;6.240;2023-06-26T09:50:32;25.00;90.00
27647;DHT22;42229;51.230;6.240;2023-06-26T09:53:12;24.90;89.30
27647;DHT22;42229;51.230;6.240;2023-06-26T09:55:44;24.90;90.00
27647;DHT22;42229;51.230;6.240;2023-06-26T09:58:11;25.00;88.80
27647;DHT22;42229;51.230;6.240;2023-06-26T10:00:41;25.00;87.30
27647;DHT22;42229;51.230;6.240;2023-06-26T10:03:09;25.00;86.40
27647;DHT22;42229;51.230;6.240;2023-06-26T10:05:36;24.90;86.00
27647;DHT22;42229;51.230;6.240;2023-06-26T10:08:02;24.80;87.10
27647;DHT22;42229;51.230;6.240;2023-06-26T10:10:30;24.80;86.60
27647;DHT22;42229;51.230;6.240;2023-06-26T10:12:59;24.80;86.80
27647;DHT22;42229;51.230;6.240;2023-06-26T10:15:27;24.80;85.40
27647;DHT22;42229;51.230;6.240;2023-06-26T10:17:55;24.70;83.00
27647;DHT22;42229;51.230;6.240;2023-06-26T10:20:22;24.70;82.60
27647;DHT22;42229;51.230;6.240;2023-06-26T10:22:48;24.70;84.10
27647;DHT22;42229;51.230;6.240;2023-06-26T10:25:18;24.70;83.30
27647;DHT22;42229;51.230;6.240;2023-06-26T10:27:47;24.80;82.10
27647;DHT22;42229;51.230;6.240;2023-06-26T10:30:17;24.80;80.30
27647;DHT22;42229;51.230;6.240;2023-06-26T10:32:46;24.90;82.50
27647;DHT22;42229;51.230;6.240;2023-06-26T10:35:13;25.00;84.00
27647;DHT22;42229;51.230;6.240;2023-06-26T10:40:10;25.20;81.50
27647;DHT22;42229;51.230;6.240;2023-06-26T10:42:37;25.30;80.10
27647;DHT22;42229;51.230;6.240;2023-06-26T10:45:14;25.40;76.60
27647;DHT22;42229;51.230;6.240;2023-06-26T10:47:42;25.50;78.60
27647;DHT22;42229;51.230;6.240;2023-06-26T10:50:16;25.50;78.20
27647;DHT22;42229;51.230;6.240;2023-06-26T10:52:54;25.60;77.10
27647;DHT22;42229;51.230;6.240;2023-06-26T10:55:41;25.60;78.50
27647;DHT22;42229;51.230;6.240;2023-06-26T10:58:27;25.50;79.60
27647;DHT22;42229;51.230;6.240;2023-06-26T11:01:13;25.50;79.10
27647;DHT22;42229;51.230;6.240;2023-06-26T11:03:41;25.50;79.30
27647;DHT22;42229;51.230;6.240;2023-06-26T11:06:10;25.50;80.70
27647;DHT22;42229;51.230;6.240;2023-06-26T11:08:50;25.60;81.30
27647;DHT22;42229;51.230;6.240;2023-06-26T11:11:19;25.60;78.50
27647;DHT22;42229;51.230;6.240;2023-06-26T11:13:46;25.70;78.70
27647;DHT22;42229;51.230;6.240;2023-06-26T11:16:14;25.70;75.60
27647;DHT22;42229;51.230;6.240;2023-06-26T11:18:41;25.80;77.80
27647;DHT22;42229;51.230;6.240;2023-06-26T11:21:08;25.80;74.50
27647;DHT22;42229;51.230;6.240;2023-06-26T11:23:35;25.80;75.80
27647;DHT22;42229;51.230;6.240;2023-06-26T11:26:19;25.80;74.70
27647;DHT22;42229;51.230;6.240;2023-06-26T11:33:52;25.80;74.30
27647;DHT22;42229;51.230;6.240;2023-06-26T11:36:19;25.80;72.70
27647;DHT22;42229;51.230;6.240;2023-06-26T11:38:45;25.80;70.80
27647;DHT22;42229;51.230;6.240;2023-06-26T11:41:16;25.90;70.90
27647;DHT22;42229;51.230;6.240;2023-06-26T11:43:45;25.90;69.80
27647;DHT22;42229;51.230;6.240;2023-06-26T11:46:11;25.80;70.90
27647;DHT22;42229;51.230;6.240;2023-06-26T11:48:38;25.80;72.20
27647;DHT22;42229;51.230;6.240;2023-06-26T11:51:05;25.90;70.20
27647;DHT22;42229;51.230;6.240;2023-06-26T11:53:31;25.90;69.80
27647;DHT22;42229;51.230;6.240;2023-06-26T11:55:57;25.90;68.00
27647;DHT22;42229;51.230;6.240;2023-06-26T11:58:25;26.00;70.50
27647;DHT22;42229;51.230;6.240;2023-06-26T12:00:51;26.00;67.40
27647;DHT22;42229;51.230;6.240;2023-06-26T12:03:17;26.00;67.00
27647;DHT22;42229;51.230;6.240;2023-06-26T12:05:43;26.00;68.30
27647;DHT22;42229;51.230;6.240;2023-06-26T12:08:10;26.10;69.40
27647;DHT22;42229;51.230;6.240;2023-06-26T12:10:37;26.20;69.20
27647;DHT22;42229;51.230;6.240;2023-06-26T12:13:03;26.40;70.20
27647;DHT22;42229;51.230;6.240;2023-06-26T12:15:29;26.60;66.30
27647;DHT22;42229;51.230;6.240;2023-06-26T12:17:56;26.70;63.60
27647;DHT22;42229;51.230;6.240;2023-06-26T12:20:22;26.70;65.80
27647;DHT22;42229;51.230;6.240;2023-06-26T12:22:51;26.70;64.70
27647;DHT22;42229;51.230;6.240;2023-06-26T12:25:24;26.90;66.60
27647;DHT22;42229;51.230;6.240;2023-06-26T12:27:50;27.00;66.00
27647;DHT22;42229;51.230;6.240;2023-06-26T12:30:16;27.10;67.60
27647;DHT22;42229;51.230;6.240;2023-06-26T12:32:45;27.20;66.70
27647;DHT22;42229;51.230;6.240;2023-06-26T12:35:15;27.30;65.60
27647;DHT22;42229;51.230;6.240;2023-06-26T12:37:41;27.40;65.40
27647;DHT22;42229;51.230;6.240;2023-06-26T12:40:16;27.50;61.20
27647;DHT22;42229;51.230;6.240;2023-06-26T12:42:48;27.50;61.50
27647;DHT22;42229;51.230;6.240;2023-06-26T12:45:14;27.60;64.00
27647;DHT22;42229;51.230;6.240;2023-06-26T12:47:41;27.50;64.30
27647;DHT22;42229;51.230;6.240;2023-06-26T12:50:07;27.60;61.70
27647;DHT22;42229;51.230;6.240;2023-06-26T12:52:34;27.80;63.50
27647;DHT22;42229;51.230;6.240;2023-06-26T12:55:00;28.00;62.60
27647;DHT22;42229;51.230;6.240;2023-06-26T12:57:26;28.20;58.10
27647;DHT22;42229;51.230;6.240;2023-06-26T12:59:53;28.40;58.90
27647;DHT22;42229;51.230;6.240;2023-06-26T13:02:19;28.60;61.30
27647;DHT22;42229;51.230;6.240;2023-06-26T13:04:45;28.60;61.50
27647;DHT22;42229;51.230;6.240;2023-06-26T13:07:12;28.60;62.30
27647;DHT22;42229;51.230;6.240;2023-06-26T13:09:38;28.50;59.90
27647;DHT22;42229;51.230;6.240;2023-06-26T13:12:05;28.50;62.40
27647;DHT22;42229;51.230;6.240;2023-06-26T13:14:31;28.50;60.00
27647;DHT22;42229;51.230;6.240;2023-06-26T13:16:58;28.40;53.90
27647;DHT22;42229;51.230;6.240;2023-06-26T13:19:25;28.30;57.50
27647;DHT22;42229;51.230;6.240;2023-06-26T13:21:52;28.20;54.60
27647;DHT22;42229;51.230;6.240;2023-06-26T13:24:18;28.20;57.00
27647;DHT22;42229;51.230;6.240;2023-06-26T13:26:44;28.30;57.50
27647;DHT22;42229;51.230;6.240;2023-06-26T13:29:10;28.30;55.90
27647;DHT22;42229;51.230;6.240;2023-06-26T13:31:37;28.30;56.70
27647;DHT22;42229;51.230;6.240;2023-06-26T13:34:04;28.40;57.40
27647;DHT22;42229;51.230;6.240;2023-06-26T13:36:31;28.40;58.90
27647;DHT22;42229;51.230;6.240;2023-06-26T13:38:59;28.50;58.90
27647;DHT22;42229;51.230;6.240;2023-06-26T13:41:26;28.60;59.30
27647;DHT22;42229;51.230;6.240;2023-06-26T13:43:53;28.60;59.10
27647;DHT22;42229;51.230;6.240;2023-06-26T13:46:20;28.60;59.50
27647;DHT22;42229;51.230;6.240;2023-06-26T13:48:46;28.60;59.40
27647;DHT22;42229;51.230;6.240;2023-06-26T13:51:12;28.60;58.20
27647;DHT22;42229;51.230;6.240;2023-06-26T13:53:39;28.40;57.10
27647;DHT22;42229;51.230;6.240;2023-06-26T13:56:05;28.30;56.50
27647;DHT22;42229;51.230;6.240;2023-06-26T13:58:31;28.10;57.90
27647;DHT22;42229;51.230;6.240;2023-06-26T14:01:00;28.00;57.20
27647;DHT22;42229;51.230;6.240;2023-06-26T14:03:27;27.90;58.70
27647;DHT22;42229;51.230;6.240;2023-06-26T14:05:54;27.90;57.70
27647;DHT22;42229;51.230;6.240;2023-06-26T14:08:22;27.90;58.60
27647;DHT22;42229;51.230;6.240;2023-06-26T14:10:49;28.00;59.60
27647;DHT22;42229;51.230;6.240;2023-06-26T14:13:15;28.10;57.80
27647;DHT22;42229;51.230;6.240;2023-06-26T14:15:41;28.10;58.60
27647;DHT22;42229;51.230;6.240;2023-06-26T14:18:08;28.20;59.20
27647;DHT22;42229;51.230;6.240;2023-06-26T14:20:34;28.30;58.40
27647;DHT22;42229;51.230;6.240;2023-06-26T14:23:02;28.40;57.80
27647;DHT22;42229;51.230;6.240;2023-06-26T14:25:28;28.50;57.50
27647;DHT22;42229;51.230;6.240;2023-06-26T14:27:55;28.70;58.60
27647;DHT22;42229;51.230;6.240;2023-06-26T14:30:22;28.70;57.50
27647;DHT22;42229;51.230;6.240;2023-06-26T14:32:48;28.70;56.10
27647;DHT22;42229;51.230;6.240;2023-06-26T14:35:14;28.70;57.40
27647;DHT22;42229;51.230;6.240;2023-06-26T14:37:40;28.60;57.60
27647;DHT22;42229;51.230;6.240;2023-06-26T14:40:07;28.60;54.40
27647;DHT22;42229;51.230;6.240;2023-06-26T14:42:34;28.70;55.50
27647;DHT22;42229;51.230;6.240;2023-06-26T14:45:00;28.80;54.40
27647;DHT22;42229;51.230;6.240;2023-06-26T14:47:26;28.80;54.70
27647;DHT22;42229;51.230;6.240;2023-06-26T14:49:53;28.80;53.90
27647;DHT22;42229;51.230;6.240;2023-06-26T14:52:19;28.80;53.50
27647;DHT22;42229;51.230;6.240;2023-06-26T14:54:45;28.70;54.70
27647;DHT22;42229;51.230;6.240;2023-06-26T14:57:11;28.60;53.40
27647;DHT22;42229;51.230;6.240;2023-06-26T14:59:38;28.60;54.40
27647;DHT22;42229;51.230;6.240;2023-06-26T15:02:04;28.50;53.40
27647;DHT22;42229;51.230;6.240;2023-06-26T15:04:31;28.30;50.90
27647;DHT22;42229;51.230;6.240;2023-06-26T15:06:57;28.30;51.40
27647;DHT22;42229;51.230;6.240;2023-06-26T15:09:24;28.20;52.20
27647;DHT22;42229;51.230;6.240;2023-06-26T15:11:50;28.10;53.40
27647;DHT22;42229;51.230;6.240;2023-06-26T15:14:16;28.00;53.40
27647;DHT22;42229;51.230;6.240;2023-06-26T15:16:42;27.90;51.70
27647;DHT22;42229;51.230;6.240;2023-06-26T15:19:08;27.90;52.40
27647;DHT22;42229;51.230;6.240;2023-06-26T15:21:35;27.80;53.00
27647;DHT22;42229;51.230;6.240;2023-06-26T15:24:01;27.70;53.40
27647;DHT22;42229;51.230;6.240;2023-06-26T15:26:27;27.60;54.00
27647;DHT22;42229;51.230;6.240;2023-06-26T15:28:53;27.50;54.60
27647;DHT22;42229;51.230;6.240;2023-06-26T15:31:20;27.50;54.60
27647;DHT22;42229;51.230;6.240;2023-06-26T15:33:46;27.40;54.90
27647;DHT22;42229;51.230;6.240;2023-06-26T15:36:13;27.40;55.50
27647;DHT22;42229;51.230;6.240;2023-06-26T15:38:40;27.40;55.40
27647;DHT22;42229;51.230;6.240;2023-06-26T15:41:12;27.60;55.30
27647;DHT22;42229;51.230;6.240;2023-06-26T15:43:38;27.80;55.80
27647;DHT22;42229;51.230;6.240;2023-06-26T15:46:05;27.90;55.40